sensor_id;sensor_type;location;lat;lon;timestamp;pressure;altitude;pressure_sealevel;temperature;humidity
48800;BME280;34611;47.964;7.982;2023-09-18T00:04:13;96258.72;;;18.39;67.48
48800;BME280;34611;47.964;7.982;2023-09-18T00:11:14;96370.91;;;18.40;67.52
48800;BME280;34611;47.964;7.982;2023-09-18T00:18:14;96311.75;;;18.36;67.60
48800;BME280;34611;47.964;7.982;2023-09-18T00:25:15;96278.97;;;18.38;67.44
48800;BME280;34611;47.964;7.982;2023-09-18T00:32:15;96236.88;;;18.38;67.40
48800;BME280;34611;47.964;7.982;2023-09-18T00:39:15;96244.75;;;18.38;67.36
48800;BME280;34611;47.964;7.982;2023-09-18T00:46:16;96241.31;;;18.38;67.49
48800;BME280;34611;47.964;7.982;2023-09-18T00:53:18;96261.34;;;18.39;67.56
48800;BME280;34611;47.964;7.982;2023-09-18T01:00:20;96332.41;;;18.39;67.51
48800;BME280;34611;47.964;7.982;2023-09-18T01:07:20;96238.88;;;18.36;67.35
48800;BME280;34611;47.964;7.982;2023-09-18T01:14:23;96283.44;;;18.38;67.33
48800;BME280;34611;47.964;7.982;2023-09-18T01:21:25;96314.00;;;18.39;67.37
48800;BME280;34611;47.964;7.982;2023-09-18T01:28:25;96334.22;;;18.38;67.46
48800;BME280;34611;47.964;7.982;2023-09-18T01:35:26;96357.91;;;18.38;67.48
48800;BME280;34611;47.964;7.982;2023-09-18T01:42:29;96293.97;;;18.38;67.54
48800;BME280;34611;47.964;7.982;2023-09-18T01:49:31;96283.44;;;18.38;67.54
48800;BME280;34611;47.964;7.982;2023-09-18T01:56:31;96299.22;;;18.38;67.51
48800;BME280;34611;47.964;7.982;2023-09-18T02:03:32;96266.84;;;18.37;67.49
48800;BME280;34611;47.964;7.982;2023-09-18T02:10:32;96274.50;;;18.39;67.36
48800;BME280;34611;47.964;7.982;2023-09-18T02:17:33;96339.31;;;18.40;67.42
48800;BME280;34611;47.964;7.982;2023-09-18T02:24:33;96353.47;;;18.39;67.43
48800;BME280;34611;47.964;7.982;2023-09-18T02:31:34;96400.84;;;18.39;67.54
48800;BME280;34611;47.964;7.982;2023-09-18T02:38:34;96434.06;;;18.40;67.40
48800;BME280;34611;47.964;7.982;2023-09-18T02:45:34;96478.97;;;18.38;67.39
48800;BME280;34611;47.964;7.982;2023-09-18T02:52:34;96467.63;;;18.38;67.60
48800;BME280;34611;47.964;7.982;2023-09-18T02:59:35;96483.44;;;18.38;67.40
48800;BME280;34611;47.964;7.982;2023-09-18T03:06:37;96485.03;;;18.39;67.55
48800;BME280;34611;47.964;7.982;2023-09-18T03:13:42;96452.84;;;18.37;67.43
48800;BME280;34611;47.964;7.982;2023-09-18T03:20:43;96421.06;;;18.38;67.38
48800;BME280;34611;47.964;7.982;2023-09-18T03:27:43;96398.19;;;18.39;67.38
48800;BME280;34611;47.964;7.982;2023-09-18T03:34:44;96351.84;;;18.38;67.38
48800;BME280;34611;47.964;7.982;2023-09-18T03:41:44;96336.06;;;18.38;67.56
48800;BME280;34611;47.964;7.982;2023-09-18T03:48:44;96303.69;;;18.37;67.39
48800;BME280;34611;47.964;7.982;2023-09-18T03:55:47;96283.44;;;18.38;67.55
48800;BME280;34611;47.964;7.982;2023-09-18T04:02:48;96295.56;;;18.39;67.55
48800;BME280;34611;47.964;7.982;2023-09-18T04:09:48;96290.31;;;18.39;67.53
48800;BME280;34611;47.964;7.982;2023-09-18T04:16:48;96326.34;;;18.38;67.42
48800;BME280;34611;47.964;7.982;2023-09-18T04:23:49;96340.53;;;18.37;67.42
48800;BME280;34611;47.964;7.982;2023-09-18T04:30:55;96336.88;;;18.38;67.45
48800;BME280;34611;47.964;7.982;2023-09-18T04:37:56;96282.63;;;18.37;67.56
48800;BME280;34611;47.964;7.982;2023-09-18T04:44:59;96276.53;;;18.37;67.44
48800;BME280;34611;47.964;7.982;2023-09-18T04:51:59;96280.78;;;18.38;67.40
48800;BME280;34611;47.964;7.982;2023-09-18T04:59:00;96282.63;;;18.37;67.53
48800;BME280;34611;47.964;7.982;2023-09-18T05:06:00;96286.88;;;18.38;67.62
48800;BME280;34611;47.964;7.982;2023-09-18T05:13:01;96299.41;;;18.36;67.51
48800;BME280;34611;47.964;7.982;2023-09-18T05:20:01;96309.75;;;18.38;67.67
48800;BME280;34611;47.964;7.982;2023-09-18T05:27:02;96298.41;;;18.37;67.46
48800;BME280;34611;47.964;7.982;2023-09-18T05:34:03;96309.75;;;18.38;67.44
48800;BME280;34611;47.964;7.982;2023-09-18T05:41:03;96333.44;;;18.38;67.49
48800;BME280;34611;47.964;7.982;2023-09-18T05:48:05;96356.31;;;18.37;67.62
48800;BME280;34611;47.964;7.982;2023-09-18T05:55:05;96373.88;;;18.37;67.48
48800;BME280;34611;47.964;7.982;2023-09-18T06:02:07;96375.53;;;18.38;67.60
48800;BME280;34611;47.964;7.982;2023-09-18T06:09:07;96370.44;;;18.36;67.45
48800;BME280;34611;47.964;7.982;2023-09-18T06:16:07;96377.34;;;18.37;67.51
48800;BME280;34611;47.964;7.982;2023-09-18T06:23:08;96393.16;;;18.37;67.61
48800;BME280;34611;47.964;7.982;2023-09-18T06:30:08;96404.47;;;18.38;67.51
48800;BME280;34611;47.964;7.982;2023-09-18T06:37:09;96425.53;;;18.38;67.64
48800;BME280;34611;47.964;7.982;2023-09-18T06:44:12;96418.63;;;18.37;67.58
48800;BME280;34611;47.964;7.982;2023-09-18T06:51:12;96415.00;;;18.38;67.52
48800;BME280;34611;47.964;7.982;2023-09-18T06:58:12;96417.00;;;18.36;67.49
48800;BME280;34611;47.964;7.982;2023-09-18T07:05:13;96435.25;;;18.37;67.55
48800;BME280;34611;47.964;7.982;2023-09-18T07:12:13;96434.41;;;18.37;67.62
48800;BME280;34611;47.964;7.982;2023-09-18T07:19:13;96445.78;;;18.37;67.69
48800;BME280;34611;47.964;7.982;2023-09-18T07:26:16;96423.88;;;18.37;67.56
48800;BME280;34611;47.964;7.982;2023-09-18T07:33:17;96418.63;;;18.37;67.68
48800;BME280;34611;47.964;7.982;2023-09-18T07:40:17;96416.00;;;18.37;67.57
48800;BME280;34611;47.964;7.982;2023-09-18T07:47:18;96405.47;;;18.37;67.64
48800;BME280;34611;47.964;7.982;2023-09-18T07:54:19;96398.59;;;18.36;67.59
48800;BME280;34611;47.964;7.982;2023-09-18T08:01:20;96419.66;;;18.36;67.78
48800;BME280;34611;47.964;7.982;2023-09-18T08:08:22;96419.66;;;18.36;67.63
48800;BME280;34611;47.964;7.982;2023-09-18T08:15:23;96435.25;;;18.37;67.56
48800;BME280;34611;47.964;7.982;2023-09-18T08:22:24;96393.31;;;18.36;67.59
48800;BME280;34611;47.964;7.982;2023-09-18T08:29:24;96367.00;;;18.36;67.73
48800;BME280;34611;47.964;7.982;2023-09-18T08:36:25;96392.53;;;18.35;67.71
48800;BME280;34611;47.964;7.982;2023-09-18T08:43:26;96449.41;;;18.36;67.64
48800;BME280;34611;47.964;7.982;2023-09-18T08:50:26;96511.75;;;18.36;67.59
48800;BME280;34611;47.964;7.982;2023-09-18T08:57:28;96525.88;;;18.35;67.73
48800;BME280;34611;47.964;7.982;2023-09-18T09:04:30;96463.56;;;18.35;67.58
48800;BME280;34611;47.964;7.982;2023-09-18T09:11:30;96350.41;;;18.35;67.61
48800;BME280;34611;47.964;7.982;2023-09-18T09:18:31;96367.00;;;18.36;67.38
48800;BME280;34611;47.964;7.982;2023-09-18T09:25:31;96373.25;;;18.35;67.73
48800;BME280;34611;47.964;7.982;2023-09-18T09:32:33;96361.75;;;18.36;67.65
48800;BME280;34611;47.964;7.982;2023-09-18T09:39:34;96374.09;;;18.35;67.64
48800;BME280;34611;47.964;7.982;2023-09-18T09:46:34;96397.56;;;18.37;67.78
48800;BME280;34611;47.964;7.982;2023-09-18T09:53:44;96405.47;;;18.37;67.52
48800;BME280;34611;47.964;7.982;2023-09-18T10:00:51;96396.78;;;18.36;67.67
48800;BME280;34611;47.964;7.982;2023-09-18T10:07:56;96401.22;;;18.36;67.66
48800;BME280;34611;47.964;7.982;2023-09-18T10:15:00;96402.84;;;18.37;67.58
48800;BME280;34611;47.964;7.982;2023-09-18T10:22:09;96362.75;;;18.35;67.69
48800;BME280;34611;47.964;7.982;2023-09-18T10:29:14;96354.66;;;18.36;67.54
48800;BME280;34611;47.964;7.982;2023-09-18T10:36:16;96381.78;;;18.37;67.61
48800;BME280;34611;47.964;7.982;2023-09-18T10:43:18;96396.78;;;18.36;67.58
48800;BME280;34611;47.964;7.982;2023-09-18T10:50:25;96396.78;;;18.36;67.49
48800;BME280;34611;47.964;7.982;2023-09-18T10:57:25;96383.59;;;18.36;67.65
48800;BME280;34611;47.964;7.982;2023-09-18T11:04:25;96376.72;;;18.35;67.71
48800;BME280;34611;47.964;7.982;2023-09-18T11:11:26;96383.59;;;18.36;67.71
48800;BME280;34611;47.964;7.982;2023-09-18T11:18:32;96370.44;;;18.36;67.55
48800;BME280;34611;47.964;7.982;2023-09-18T11:32:45;96403.84;;;18.36;67.58
48800;BME280;34611;47.964;7.982;2023-09-18T11:39:45;96392.31;;;18.37;67.61
48800;BME280;34611;47.964;7.982;2023-09-18T11:46:47;96381.78;;;18.37;67.46
48800;BME280;34611;47.964;7.982;2023-09-18T11:53:54;96383.59;;;18.36;67.46
48800;BME280;34611;47.964;7.982;2023-09-18T12:00:55;96370.44;;;18.36;67.68
48800;BME280;34611;47.964;7.982;2023-09-18T12:07:55;96370.44;;;18.36;67.70
48800;BME280;34611;47.964;7.982;2023-09-18T12:14:56;96371.25;;;18.37;67.66
48800;BME280;34611;47.964;7.982;2023-09-18T12:21:56;96365.19;;;18.36;67.72
48800;BME280;34611;47.964;7.982;2023-09-18T12:28:57;96369.66;;;18.36;67.54
48800;BME280;34611;47.964;7.982;2023-09-18T12:36:00;96352.22;;;18.35;67.67
48800;BME280;34611;47.964;7.982;2023-09-18T12:43:00;96361.75;;;18.36;67.54
48800;BME280;34611;47.964;7.982;2023-09-18T12:50:02;96369.66;;;18.36;67.69
48800;BME280;34611;47.964;7.982;2023-09-18T12:57:04;96360.72;;;18.37;67.59
48800;BME280;34611;47.964;7.982;2023-09-18T13:04:06;96361.75;;;18.36;67.55
48800;BME280;34611;47.964;7.982;2023-09-18T13:11:06;96341.69;;;18.35;67.64
48800;BME280;34611;47.964;7.982;2023-09-18T13:18:10;96343.34;;;18.36;67.69
48800;BME280;34611;47.964;7.982;2023-09-18T13:25:11;96333.63;;;18.36;67.59
48800;BME280;34611;47.964;7.982;2023-09-18T13:32:11;96334.41;;;18.37;67.83
48800;BME280;34611;47.964;7.982;2023-09-18T13:39:12;96327.53;;;18.36;67.49
48800;BME280;34611;47.964;7.982;2023-09-18T13:46:12;96334.41;;;18.37;67.43
48800;BME280;34611;47.964;7.982;2023-09-18T13:53:13;96320.63;;;18.35;67.54
48800;BME280;34611;47.964;7.982;2023-09-18T14:00:14;96321.25;;;18.37;67.66
48800;BME280;34611;47.964;7.982;2023-09-18T14:07:14;96320.44;;;18.36;67.66
48800;BME280;34611;47.964;7.982;2023-09-18T14:14:14;96308.09;;;18.37;67.55
48800;BME280;34611;47.964;7.982;2023-09-18T14:21:14;96299.41;;;18.36;67.50
48800;BME280;34611;47.964;7.982;2023-09-18T14:28:15;96285.44;;;18.36;67.60
48800;BME280;34611;47.964;7.982;2023-09-18T14:35:15;96272.28;;;18.36;67.47
48800;BME280;34611;47.964;7.982;2023-09-18T14:42:15;96268.84;;;18.35;67.66
48800;BME280;34611;47.964;7.982;2023-09-18T14:49:16;96262.56;;;18.36;67.54
48800;BME280;34611;47.964;7.982;2023-09-18T14:56:16;96272.28;;;18.36;67.65
48800;BME280;34611;47.964;7.982;2023-09-18T15:03:17;96248.59;;;18.36;67.59
48800;BME280;34611;47.964;7.982;2023-09-18T15:10:17;96241.50;;;18.36;67.72
48800;BME280;34611;47.964;7.982;2023-09-18T15:17:18;96238.06;;;18.36;67.61
48800;BME280;34611;47.964;7.982;2023-09-18T15:24:19;96218.63;;;18.37;67.65
48800;BME280;34611;47.964;7.982;2023-09-18T15:31:19;96206.50;;;18.36;67.74
48800;BME280;34611;47.964;7.982;2023-09-18T15:38:19;96207.31;;;18.36;67.70
48800;BME280;34611;47.964;7.982;2023-09-18T15:45:20;96194.16;;;18.36;67.55
48800;BME280;34611;47.964;7.982;2023-09-18T15:52:21;96195.16;;;18.35;67.63
48800;BME280;34611;47.964;7.982;2023-09-18T15:59:21;96196.97;;;18.35;67.60
48800;BME280;34611;47.964;7.982;2023-09-18T16:06:22;96203.88;;;18.36;67.55
48800;BME280;34611;47.964;7.982;2023-09-18T16:13:22;96203.88;;;18.36;67.66
48800;BME280;34611;47.964;7.982;2023-09-18T16:20:22;96219.66;;;18.36;67.59
48800;BME280;34611;47.964;7.982;2023-09-18T16:27:23;96214.38;;;18.36;67.69
48800;BME280;34611;47.964;7.982;2023-09-18T16:34:24;96224.91;;;18.36;67.63
48800;BME280;34611;47.964;7.982;2023-09-18T16:41:24;96211.75;;;18.36;67.72
48800;BME280;34611;47.964;7.982;2023-09-18T16:48:25;96216.00;;;18.37;67.59
48800;BME280;34611;47.964;7.982;2023-09-18T16:55:26;96223.09;;;18.36;67.71
48800;BME280;34611;47.964;7.982;2023-09-18T17:02:26;96233.63;;;18.36;67.71
48800;BME280;34611;47.964;7.982;2023-09-18T17:09:26;96244.13;;;18.36;67.72
48800;BME280;34611;47.964;7.982;2023-09-18T17:16:27;96257.13;;;18.38;67.62
48800;BME280;34611;47.964;7.982;2023-09-18T17:23:27;96239.69;;;18.37;67.65
48800;BME280;34611;47.964;7.982;2023-09-18T17:30:28;96253.69;;;18.37;67.58
48800;BME280;34611;47.964;7.982;2023-09-18T17:37:28;96248.81;;;18.41;67.66
48800;BME280;34611;47.964;7.982;2023-09-18T17:44:30;96252.47;;;18.40;67.79
48800;BME280;34611;47.964;7.982;2023-09-18T17:51:30;96257.72;;;18.40;67.60
48800;BME280;34611;47.964;7.982;2023-09-18T17:58:34;96243.75;;;18.39;67.63
48800;BME280;34611;47.964;7.982;2023-09-18T18:05:35;96240.31;;;18.39;67.65
48800;BME280;34611;47.964;7.982;2023-09-18T18:12:37;96257.13;;;18.38;67.73
48800;BME280;34611;47.964;7.982;2023-09-18T18:19:38;96268.44;;;18.38;67.70
48800;BME280;34611;47.964;7.982;2023-09-18T18:26:38;96272.91;;;18.38;67.60
48800;BME280;34611;47.964;7.982;2023-09-18T18:33:38;96277.38;;;18.37;67.58
48800;BME280;34611;47.964;7.982;2023-09-18T18:40:39;96410.38;;;18.40;67.82
48800;BME280;34611;47.964;7.982;2023-09-18T18:47:44;96370.44;;;18.36;67.71
48800;BME280;34611;47.964;7.982;2023-09-18T18:54:44;96427.16;;;18.39;67.63
48800;BME280;34611;47.964;7.982;2023-09-18T19:01:44;96441.31;;;18.38;67.73
48800;BME280;34611;47.964;7.982;2023-09-18T19:08:45;96436.88;;;18.38;67.71
48800;BME280;34611;47.964;7.982;2023-09-18T19:15:45;96427.34;;;18.37;67.70
48800;BME280;34611;47.964;7.982;2023-09-18T19:22:45;96424.72;;;18.37;67.86
48800;BME280;34611;47.964;7.982;2023-09-18T19:29:46;96417.00;;;18.36;67.83
48800;BME280;34611;47.964;7.982;2023-09-18T19:36:49;96413.38;;;18.37;67.74
48800;BME280;34611;47.964;7.982;2023-09-18T19:43:53;96401.22;;;18.36;67.81
48800;BME280;34611;47.964;7.982;2023-09-18T19:50:54;96394.94;;;18.37;67.87
48800;BME280;34611;47.964;7.982;2023-09-18T19:57:59;96404.66;;;18.36;67.73
48800;BME280;34611;47.964;7.982;2023-09-18T20:05:00;96405.47;;;18.37;67.75
48800;BME280;34611;47.964;7.982;2023-09-18T20:12:00;96417.63;;;18.38;67.69
48800;BME280;34611;47.964;7.982;2023-09-18T20:19:00;96413.38;;;18.37;67.81
48800;BME280;34611;47.964;7.982;2023-09-18T20:26:02;96406.47;;;18.36;67.84
48800;BME280;34611;47.964;7.982;2023-09-18T20:33:02;96402.84;;;18.37;67.83
48800;BME280;34611;47.964;7.982;2023-09-18T20:40:04;96413.38;;;18.37;67.72
48800;BME280;34611;47.964;7.982;2023-09-18T20:47:06;96414.38;;;18.36;67.82
48800;BME280;34611;47.964;7.982;2023-09-18T20:54:06;96423.09;;;18.36;67.92
48800;BME280;34611;47.964;7.982;2023-09-18T21:01:07;96413.38;;;18.37;67.70
48800;BME280;34611;47.964;7.982;2023-09-18T21:08:07;96423.88;;;18.37;67.76
48800;BME280;34611;47.964;7.982;2023-09-18T21:15:09;96425.72;;;18.36;67.90
48800;BME280;34611;47.964;7.982;2023-09-18T21:22:09;96437.03;;;18.37;67.72
48800;BME280;34611;47.964;7.982;2023-09-18T21:29:10;96487.88;;;18.37;67.71
48800;BME280;34611;47.964;7.982;2023-09-18T21:36:14;96534.41;;;18.37;67.79
48800;BME280;34611;47.964;7.982;2023-09-18T21:43:14;96534.41;;;18.37;67.81
48800;BME280;34611;47.964;7.982;2023-09-18T21:50:14;96543.31;;;18.36;67.94
48800;BME280;34611;47.964;7.982;2023-09-18T21:57:15;96549.41;;;18.36;67.79
48800;BME280;34611;47.964;7.982;2023-09-18T22:04:15;96543.16;;;18.37;67.73
48800;BME280;34611;47.964;7.982;2023-09-18T22:11:17;96542.31;;;18.37;67.87
48800;BME280;34611;47.964;7.982;2023-09-18T22:18:17;96544.94;;;18.37;67.75
48800;BME280;34611;47.964;7.982;2023-09-18T22:25:17;96547.56;;;18.37;67.83
48800;BME280;34611;47.964;7.982;2023-09-18T22:32:18;96558.09;;;18.37;67.85
48800;BME280;34611;47.964;7.982;2023-09-18T23:00:52;96550.19;;;18.37;67.79
48800;BME280;34611;47.964;7.982;2023-09-18T23:07:54;96571.47;;;18.35;67.73
48800;BME280;34611;47.964;7.982;2023-09-18T23:14:55;96569.63;;;18.36;67.78
48800;BME280;34611;47.964;7.982;2023-09-18T23:21:55;96560.94;;;18.35;67.75
48800;BME280;34611;47.964;7.982;2023-09-18T23:28:56;96564.38;;;18.36;67.76
48800;BME280;34611;47.964;7.982;2023-09-18T23:35:56;96581.78;;;18.37;67.84
48800;BME280;34611;47.964;7.982;2023-09-18T23:42:58;96602.84;;;18.37;67.64
48800;BME280;34611;47.964;7.982;2023-09-18T23:50:03;96599.41;;;18.36;67.85
48800;BME280;34611;47.964;7.982;2023-09-18T23:57:07;96604.66;;;18.36;67.91
